Time;durP1;ratioP1;P1;durP2;ratioP2;P2;SDS_P1;SDS_P2;PMS_P1;PMS_P2;Temp;Humidity;BMP_temperature;BMP_pressure;BME280_temperature;BME280_humidity;BME280_pressure;Samples;Min_cycle;Max_cycle;Signal;HPM_P1;HPM_P2
2021/07/21 00:00:31;;;;;;;12.32;6.97;;;16.40;42.70;;;;;;5055332;28;20021;-86
2021/07/21 00:02:58;;;;;;;12.45;6.63;;;16.40;43.10;;;;;;5054527;28;20025;-86
2021/07/21 00:05:26;;;;;;;13.98;6.45;;;16.30;42.70;;;;;;5054350;28;20047;-86
2021/07/21 00:07:55;;;;;;;11.90;6.40;;;16.20;42.80;;;;;;5054288;28;20061;-85
2021/07/21 00:10:23;;;;;;;14.07;6.53;;;16.20;43.40;;;;;;5054277;28;20056;-85
2021/07/21 00:15:37;;;;;;;11.27;5.57;;;16.20;43.10;;;;;;5055308;28;20082;-86
2021/07/21 00:18:20;;;;;;;12.48;6.10;;;16.00;43.10;;;;;;5054115;28;20025;-86
2021/07/21 00:20:48;;;;;;;14.35;6.65;;;16.00;43.30;;;;;;5054291;28;20032;-85
2021/07/21 00:23:15;;;;;;;11.52;6.38;;;16.00;43.40;;;;;;5054361;28;20021;-85
2021/07/21 00:25:40;;;;;;;11.30;5.63;;;16.00;43.30;;;;;;5053726;28;20025;-86
2021/07/21 00:28:06;;;;;;;13.10;6.43;;;15.90;43.30;;;;;;5053816;28;20021;-86
2021/07/21 00:30:34;;;;;;;13.23;6.25;;;15.90;43.50;;;;;;5038372;28;20123;-86
2021/07/21 00:33:00;;;;;;;11.75;6.88;;;15.90;43.50;;;;;;5053624;28;20033;-86
2021/07/21 00:35:25;;;;;;;12.73;5.88;;;15.80;43.60;;;;;;5053765;28;20101;-86
2021/07/21 00:37:51;;;;;;;12.23;6.03;;;15.70;43.50;;;;;;5054035;28;20053;-85
2021/07/21 00:40:17;;;;;;;12.15;6.38;;;15.60;43.60;;;;;;5054872;28;20028;-86
2021/07/21 00:42:46;;;;;;;13.15;6.63;;;15.60;43.80;;;;;;5053650;28;20413;-86
2021/07/21 00:45:12;;;;;;;11.18;5.32;;;15.60;43.90;;;;;;5053485;28;20112;-86
2021/07/21 00:47:38;;;;;;;11.07;5.53;;;15.50;43.90;;;;;;5053587;28;20112;-87
2021/07/21 00:50:06;;;;;;;11.80;6.63;;;15.50;43.90;;;;;;5053379;28;20024;-85
2021/07/21 00:52:35;;;;;;;14.30;6.47;;;15.50;44.10;;;;;;5054253;28;20477;-86
2021/07/21 00:55:03;;;;;;;11.13;6.03;;;15.40;44.00;;;;;;5054084;28;20029;-85
2021/07/21 00:57:29;;;;;;;13.23;6.05;;;15.30;43.90;;;;;;5053890;28;20050;-85
2021/07/21 00:59:56;;;;;;;11.75;5.65;;;15.30;43.90;;;;;;5053888;28;20162;-85
2021/07/21 01:02:22;;;;;;;11.57;5.80;;;15.20;44.20;;;;;;5053129;28;20417;-85
2021/07/21 01:04:48;;;;;;;12.57;6.38;;;15.00;44.00;;;;;;5052993;28;20017;-85
2021/07/21 01:07:16;;;;;;;12.80;6.20;;;15.10;44.30;;;;;;5053903;28;20043;-85
2021/07/21 01:09:45;;;;;;;13.38;6.22;;;15.10;44.40;;;;;;5054210;28;20048;-85
2021/07/21 01:12:30;;;;;;;11.05;5.88;;;15.10;44.40;;;;;;5053061;28;20037;-85
2021/07/21 01:15:10;;;;;;;10.77;5.60;;;15.00;44.60;;;;;;5053612;28;20384;-86
2021/07/21 01:17:52;;;;;;;11.85;6.45;;;15.00;44.60;;;;;;5053803;28;20111;-86
2021/07/21 01:20:46;;;;;;;12.73;6.20;;;14.90;44.60;;;;;;5053209;28;20036;-86
2021/07/21 01:23:48;;;;;;;11.55;5.75;;;14.90;44.60;;;;;;5054507;28;20021;-86
2021/07/21 01:26:27;;;;;;;9.15;4.80;;;14.80;44.60;;;;;;5054193;28;20052;-87
2021/07/21 01:28:55;;;;;;;10.45;5.65;;;14.70;44.60;;;;;;5053665;28;20453;-87
2021/07/21 01:31:30;;;;;;;13.00;5.45;;;14.70;44.70;;;;;;5052737;28;20033;-87
2021/07/21 01:34:00;;;;;;;12.18;6.10;;;14.70;44.90;;;;;;5054161;28;20551;-86
2021/07/21 01:36:30;;;;;;;12.85;6.30;;;14.60;45.00;;;;;;5032316;28;20031;-86
2021/07/21 01:39:03;;;;;;;11.27;5.65;;;14.50;44.90;;;;;;5048891;28;20060;-86
2021/07/21 01:41:33;;;;;;;11.48;5.85;;;14.50;44.90;;;;;;5049040;28;20026;-86
2021/07/21 01:44:03;;;;;;;11.23;5.88;;;14.50;45.10;;;;;;5049474;28;20389;-86
2021/07/21 01:46:30;;;;;;;15.32;6.03;;;14.40;45.10;;;;;;5049405;28;20029;-86
2021/07/21 01:48:59;;;;;;;13.20;6.35;;;14.40;45.10;;;;;;5033729;28;20033;-85
2021/07/21 01:51:26;;;;;;;11.52;6.57;;;14.40;45.20;;;;;;5033385;28;20045;-85
2021/07/21 01:53:55;;;;;;;13.88;6.53;;;14.40;45.30;;;;;;5049453;28;20044;-86
2021/07/21 01:56:22;;;;;;;12.60;5.80;;;14.40;45.40;;;;;;5048931;28;20573;-85
2021/07/21 01:58:52;;;;;;;11.52;5.65;;;14.40;45.40;;;;;;5033260;28;20071;-85
2021/07/21 02:01:24;;;;;;;11.80;6.38;;;14.30;45.50;;;;;;5048824;28;20025;-85
2021/07/21 02:03:49;;;;;;;14.15;6.38;;;14.30;45.50;;;;;;5049143;28;20116;-85
2021/07/21 02:06:16;;;;;;;12.13;5.88;;;14.10;45.50;;;;;;5048956;28;20061;-84
2021/07/21 02:08:43;;;;;;;14.57;6.78;;;14.20;45.60;;;;;;5033165;28;20044;-85
2021/07/21 02:11:12;;;;;;;11.50;5.63;;;14.20;46.30;;;;;;5032236;28;20025;-86
2021/07/21 02:13:38;;;;;;;11.95;6.47;;;14.20;45.70;;;;;;5049210;28;20458;-86
2021/07/21 02:16:04;;;;;;;13.55;6.38;;;14.10;45.70;;;;;;4999469;28;20036;-84
2021/07/21 02:18:31;;;;;;;11.65;5.97;;;14.10;45.90;;;;;;5048730;28;20028;-84
2021/07/21 02:21:02;;;;;;;11.50;6.38;;;14.10;45.90;;;;;;5032420;28;20444;-86
2021/07/21 02:23:28;;;;;;;12.70;6.20;;;14.10;46.10;;;;;;5048916;28;20025;-85
2021/07/21 02:26:01;;;;;;;12.90;6.20;;;14.00;46.00;;;;;;5048858;28;20469;-84
2021/07/21 02:28:29;;;;;;;13.20;6.38;;;13.90;46.00;;;;;;5048538;28;20037;-84
2021/07/21 02:30:59;;;;;;;13.55;6.97;;;14.00;46.10;;;;;;5048262;28;20025;-84
2021/07/21 02:33:46;;;;;;;13.45;6.65;;;13.90;46.10;;;;;;5048910;28;20044;-83
2021/07/21 02:36:12;;;;;;;10.38;5.35;;;13.90;46.30;;;;;;5051894;28;20131;-83
2021/07/21 02:38:42;;;;;;;12.02;5.80;;;13.80;46.20;;;;;;5053319;28;20021;-84
2021/07/21 02:41:10;;;;;;;11.23;5.70;;;13.80;46.30;;;;;;5051899;28;20492;-83
2021/07/21 02:43:39;;;;;;;11.98;5.95;;;13.70;46.30;;;;;;5051691;28;20040;-83
2021/07/21 02:46:07;;;;;;;12.27;6.40;;;13.70;46.40;;;;;;5052000;28;20040;-86
2021/07/21 02:48:33;;;;;;;12.57;5.90;;;13.70;46.50;;;;;;5052151;28;20025;-86
2021/07/21 02:51:11;;;;;;;12.85;6.05;;;13.70;46.60;;;;;;5053954;28;20481;-86
2021/07/21 02:53:41;;;;;;;14.48;6.57;;;13.60;46.70;;;;;;5055499;28;20044;-86
2021/07/21 02:56:11;;;;;;;13.57;6.10;;;13.70;46.70;;;;;;5055779;28;20025;-86
2021/07/21 02:58:51;;;;;;;13.15;5.93;;;13.60;46.80;;;;;;5055285;28;20091;-86
2021/07/21 03:01:20;;;;;;;14.82;6.22;;;13.60;46.80;;;;;;5055582;28;20029;-85
2021/07/21 03:03:50;;;;;;;14.27;6.47;;;13.60;47.00;;;;;;5055613;28;20033;-85
2021/07/21 03:06:22;;;;;;;15.48;6.50;;;13.50;46.90;;;;;;5055319;28;20611;-85
2021/07/21 03:08:49;;;;;;;12.43;5.85;;;13.50;47.10;;;;;;5055617;28;20116;-85
2021/07/21 03:11:17;;;;;;;13.45;5.93;;;13.40;46.90;;;;;;5055394;28;20024;-86
2021/07/21 03:13:53;;;;;;;13.82;6.78;;;13.50;47.00;;;;;;5055319;28;20032;-86
2021/07/21 03:16:27;;;;;;;12.82;5.85;;;13.40;47.00;;;;;;5055140;28;20469;-85
2021/07/21 03:18:56;;;;;;;12.17;6.07;;;13.30;47.00;;;;;;5056493;28;20457;-86
2021/07/21 03:21:24;;;;;;;10.52;5.43;;;13.40;47.20;;;;;;5055382;28;20052;-85
2021/07/21 03:23:50;;;;;;;14.40;6.70;;;13.30;47.20;;;;;;5056236;28;20032;-85
2021/07/21 03:26:17;;;;;;;15.73;6.20;;;13.30;47.20;;;;;;5054862;28;20029;-86
2021/07/21 03:28:44;;;;;;;12.88;6.07;;;13.20;47.30;;;;;;5056097;28;20047;-85
2021/07/21 03:31:11;;;;;;;14.45;6.15;;;13.20;47.30;;;;;;5055043;28;20461;-85
2021/07/21 03:33:38;;;;;;;12.27;6.20;;;13.20;47.40;;;;;;5055279;28;20048;-85
2021/07/21 03:36:06;;;;;;;14.18;5.97;;;13.20;47.40;;;;;;5054280;28;20469;-84
2021/07/21 03:38:32;;;;;;;12.73;5.93;;;13.20;47.50;;;;;;5054957;28;20389;-84
2021/07/21 03:41:00;;;;;;;14.32;7.10;;;13.20;47.60;;;;;;5054835;28;20116;-84
2021/07/21 03:43:26;;;;;;;12.85;6.68;;;13.10;47.80;;;;;;5054751;28;20021;-84
2021/07/21 03:45:57;;;;;;;12.35;5.70;;;13.20;48.00;;;;;;5054671;28;20029;-84
2021/07/21 03:48:27;;;;;;;12.13;6.50;;;13.20;48.00;;;;;;5054623;28;20476;-84
2021/07/21 03:51:19;;;;;;;11.57;5.75;;;13.30;48.10;;;;;;5054120;28;20501;-85
2021/07/21 03:54:08;;;;;;;14.48;5.95;;;13.30;48.10;;;;;;5016728;28;20042;-85
2021/07/21 03:56:40;;;;;;;14.50;7.57;;;13.20;48.10;;;;;;5047501;28;20036;-85
2021/07/21 03:59:18;;;;;;;13.02;5.95;;;13.10;48.10;;;;;;5068885;28;20021;-82
2021/07/21 04:02:10;;;;;;;16.75;6.82;;;13.20;48.20;;;;;;5056008;28;20017;-85
2021/07/21 04:04:42;;;;;;;14.07;6.20;;;13.20;48.20;;;;;;5040608;28;20041;-84
2021/07/21 04:07:11;;;;;;;14.57;6.78;;;13.30;48.30;;;;;;5055605;28;20023;-87
2021/07/21 04:09:38;;;;;;;13.88;6.80;;;13.20;48.40;;;;;;5054896;28;20025;-87
2021/07/21 04:12:05;;;;;;;13.10;6.60;;;13.10;48.30;;;;;;5055657;28;20036;-86
2021/07/21 04:14:31;;;;;;;12.48;6.07;;;13.30;48.50;;;;;;5054474;28;20477;-87
2021/07/21 04:17:04;;;;;;;13.65;6.43;;;13.30;48.60;;;;;;5040465;28;20082;-86
2021/07/21 04:19:30;;;;;;;13.57;6.57;;;13.30;48.60;;;;;;5055638;28;20484;-85
2021/07/21 04:21:59;;;;;;;14.88;6.35;;;13.30;48.70;;;;;;5039135;28;20082;-84
2021/07/21 04:24:26;;;;;;;12.85;6.25;;;13.40;48.80;;;;;;5054384;28;20052;-85
2021/07/21 04:26:52;;;;;;;14.75;6.35;;;13.40;48.80;;;;;;5038069;28;20119;-85
2021/07/21 04:29:22;;;;;;;11.90;6.20;;;13.40;48.80;;;;;;5037388;28;20062;-85
2021/07/21 04:31:49;;;;;;;11.77;6.05;;;13.40;49.00;;;;;;5054088;28;20118;-84
2021/07/21 04:34:18;;;;;;;14.40;6.25;;;13.40;49.00;;;;;;5037274;28;20170;-85
2021/07/21 04:36:45;;;;;;;14.50;7.78;;;13.50;49.20;;;;;;5034872;28;20029;-85
2021/07/21 04:39:16;;;;;;;17.23;8.15;;;13.50;49.30;;;;;;5033591;28;20053;-85
2021/07/21 04:41:43;;;;;;;16.98;7.60;;;13.60;49.50;;;;;;5050935;28;20030;-85
2021/07/21 04:44:09;;;;;;;21.13;11.70;;;13.60;49.50;;;;;;5051117;28;20116;-85
2021/07/21 04:46:39;;;;;;;16.73;9.07;;;13.60;49.70;;;;;;5050544;28;20033;-85
2021/07/21 04:49:09;;;;;;;17.27;9.70;;;13.70;49.70;;;;;;5050343;28;20109;-84
2021/07/21 04:51:36;;;;;;;18.00;7.57;;;13.80;49.90;;;;;;5050049;28;20172;-85
2021/07/21 04:54:04;;;;;;;15.15;6.65;;;13.80;49.90;;;;;;5050038;28;20531;-85
2021/07/21 04:56:33;;;;;;;15.07;7.57;;;13.90;50.10;;;;;;5050394;28;20454;-85
2021/07/21 04:58:59;;;;;;;13.85;7.85;;;13.80;50.10;;;;;;5050211;28;20040;-86
2021/07/21 05:01:25;;;;;;;14.43;6.93;;;14.00;50.20;;;;;;5034997;28;20029;-85
2021/07/21 05:03:54;;;;;;;12.18;6.75;;;13.90;50.10;;;;;;5050154;28;20458;-85
2021/07/21 05:06:25;;;;;;;12.68;6.55;;;14.10;50.40;;;;;;5033523;28;20036;-85
2021/07/21 05:08:51;;;;;;;13.27;6.38;;;14.10;50.40;;;;;;5050091;28;20029;-85
2021/07/21 05:11:18;;;;;;;13.68;7.38;;;14.20;50.50;;;;;;5050072;28;20079;-85
2021/07/21 05:13:44;;;;;;;14.30;8.35;;;14.30;50.60;;;;;;5049049;28;20025;-85
2021/07/21 05:16:13;;;;;;;15.23;7.85;;;14.40;50.80;;;;;;5035189;28;20155;-91
2021/07/21 05:18:42;;;;;;;16.08;7.38;;;14.40;50.80;;;;;;5060237;28;20029;-90
2021/07/21 05:21:08;;;;;;;14.45;7.25;;;14.30;50.80;;;;;;5074728;28;20026;-91
2021/07/21 05:23:34;;;;;;;12.70;7.70;;;14.40;51.00;;;;;;5062564;28;20041;-89
2021/07/21 05:26:01;;;;;;;13.82;7.35;;;14.50;51.10;;;;;;5035230;28;20440;-91
2021/07/21 05:28:27;;;;;;;14.52;7.60;;;14.50;51.10;;;;;;5051342;28;20029;-91
2021/07/21 05:31:10;;;;;;;14.55;7.30;;;14.60;51.30;;;;;;5050925;28;20056;-91
2021/07/21 05:33:37;;;;;;;13.55;7.38;;;14.50;51.20;;;;;;5051847;28;20037;-90
2021/07/21 05:36:03;;;;;;;16.10;7.75;;;14.60;51.30;;;;;;5054140;28;20171;-92
2021/07/21 05:38:32;;;;;;;14.43;6.88;;;14.70;51.40;;;;;;5054728;28;20167;-89
2021/07/21 05:41:08;;;;;;;;;;;;;;;;;;;;;
2021/07/21 05:43:34;;;;;;;13.98;8.60;;;14.80;51.80;;;;;;5054921;28;20392;-89
2021/07/21 05:46:03;;;;;;;14.70;8.10;;;14.90;51.90;;;;;;5053735;28;20107;-91
2021/07/21 05:48:29;;;;;;;13.52;7.72;;;14.90;51.90;;;;;;5054617;28;20027;-85
2021/07/21 05:50:57;;;;;;;14.82;6.70;;;15.00;52.10;;;;;;5059614;28;20116;-91
2021/07/21 05:53:25;;;;;;;13.60;7.63;;;15.10;52.10;;;;;;5059962;28;20135;-92
2021/07/21 05:55:51;;;;;;;19.85;8.95;;;15.10;52.00;;;;;;5041953;28;20044;-92
2021/07/21 05:58:19;;;;;;;15.27;8.93;;;15.20;52.30;;;;;;5054641;28;20032;-92
2021/07/21 06:00:45;;;;;;;16.92;7.97;;;15.30;52.70;;;;;;5055472;28;20029;-87
2021/07/21 06:03:15;;;;;;;17.55;8.57;;;15.30;52.40;;;;;;5054417;28;20027;-90
2021/07/21 15:15:21;;;;;;;40.05;9.23;;;23.40;58.10;;;;;;5080595;27;20378;-62
2021/07/21 15:17:46;;;;;;;44.15;8.45;;;24.10;55.10;;;;;;5069847;28;20049;-65
2021/07/21 15:20:13;;;;;;;36.38;8.93;;;24.30;54.20;;;;;;5071212;28;20534;-65
2021/07/21 15:22:39;;;;;;;46.45;9.38;;;24.30;53.20;;;;;;5071275;28;20021;-65
2021/07/21 15:25:05;;;;;;;42.53;8.77;;;24.40;53.10;;;;;;5070831;28;20504;-64
2021/07/21 15:27:31;;;;;;;47.20;8.68;;;24.80;52.00;;;;;;5070654;28;20037;-65
2021/07/21 15:29:57;;;;;;;35.83;8.70;;;25.00;51.70;;;;;;5070909;28;20103;-70
2021/07/21 15:32:23;;;;;;;40.83;8.35;;;25.10;51.30;;;;;;5070954;28;20516;-70
2021/07/21 15:34:50;;;;;;;36.25;8.48;;;25.00;51.70;;;;;;5072516;28;20115;-69
2021/07/21 15:37:15;;;;;;;42.88;8.60;;;25.10;51.90;;;;;;5071014;28;20028;-68
2021/07/21 15:39:41;;;;;;;43.75;8.98;;;24.90;52.20;;;;;;5071195;28;20032;-68
2021/07/21 15:42:09;;;;;;;35.78;9.07;;;24.70;52.70;;;;;;5072411;28;20029;-75
